Time;durP1;ratioP1;P1;durP2;ratioP2;P2;SDS_P1;SDS_P2;PMS_P1;PMS_P2;Temp;Humidity;BMP_temperature;BMP_pressure;BME280_temperature;BME280_humidity;BME280_pressure;Samples;Min_cycle;Max_cycle;Signal;HPM_P1;HPM_P2
2021/12/14 00:02:02;;;;;;;19.40;8.88;;;;;;;9.06;100.00;102598.94;5071799;28;20044;-30
2021/12/14 00:04:34;;;;;;;19.92;9.25;;;;;;;9.07;100.00;102595.91;5071850;28;20048;-34
2021/12/14 00:07:08;;;;;;;21.75;9.30;;;;;;;9.08;100.00;102591.19;5068656;28;20053;-37
2021/12/14 00:09:39;;;;;;;24.15;10.15;;;;;;;9.07;100.00;102592.28;5071394;28;20044;-35
2021/12/14 00:12:22;;;;;;;19.35;10.13;;;;;;;9.05;100.00;102603.66;5071688;28;20056;-28
2021/12/14 00:15:04;;;;;;;22.35;9.25;;;;;;;9.04;100.00;102590.81;5071364;28;20044;-33
2021/12/14 00:17:40;;;;;;;21.27;10.07;;;;;;;9.07;100.00;102584.75;5069888;28;20048;-33
2021/12/14 00:20:17;;;;;;;23.75;10.32;;;;;;;9.07;100.00;102578.34;5071764;28;20151;-38
2021/12/14 00:25:43;;;;;;;21.85;9.60;;;;;;;9.07;100.00;102581.97;5071250;28;20040;-32
2021/12/14 00:28:14;;;;;;;27.30;11.10;;;;;;;9.06;100.00;102577.50;5061142;28;20048;-36
2021/12/14 00:30:44;;;;;;;23.27;10.27;;;;;;;9.07;100.00;102568.06;5071144;28;20044;-36
2021/12/14 00:33:15;;;;;;;24.05;10.30;;;;;;;9.06;100.00;102571.94;5071847;28;20040;-39
2021/12/14 00:35:46;;;;;;;21.98;10.52;;;;;;;9.06;100.00;102562.72;5070686;28;20051;-33
2021/12/14 00:38:15;;;;;;;21.38;10.57;;;;;;;9.03;100.00;102572.41;5070165;28;20178;-40
2021/12/14 00:40:50;;;;;;;20.63;10.82;;;;;;;9.05;100.00;102570.25;5071423;28;20151;-38
2021/12/14 00:43:17;;;;;;;22.52;10.13;;;;;;;9.06;100.00;102574.72;5068067;28;20482;-35
2021/12/14 00:45:46;;;;;;;22.42;11.18;;;;;;;9.07;100.00;102573.63;5071639;28;20433;-35
2021/12/14 00:48:15;;;;;;;26.15;10.98;;;;;;;9.06;100.00;102576.66;5069914;28;20047;-34
2021/12/14 00:50:48;;;;;;;23.75;11.68;;;;;;;9.07;100.00;102568.06;5070448;28;20131;-39
2021/12/14 00:53:16;;;;;;;21.40;11.27;;;;;;;9.07;100.00;102568.06;5071340;28;20049;-35
2021/12/14 00:55:47;;;;;;;25.90;11.63;;;;;;;9.05;100.00;102578.59;5071317;28;20139;-30
2021/12/14 00:58:16;;;;;;;24.15;11.07;;;;;;;9.06;100.00;102571.94;5070413;28;20041;-30
2021/12/14 01:00:48;;;;;;;21.88;10.52;;;;;;;9.05;100.00;102561.88;5069446;28;20048;-31
2021/12/14 01:03:16;;;;;;;26.42;11.32;;;;;;;9.01;100.00;102545.91;5066268;28;20060;-32
2021/12/14 01:05:48;;;;;;;22.77;11.10;;;;;;;9.04;100.00;102551.84;5053896;28;20133;-28
2021/12/14 01:08:21;;;;;;;20.38;9.10;;;;;;;9.07;100.00;102556.91;5071177;28;20054;-39
2021/12/14 01:10:52;;;;;;;21.08;9.55;;;;;;;9.06;100.00;102552.44;5070542;28;20123;-35
2021/12/14 01:13:24;;;;;;;20.52;9.52;;;;;;;9.06;100.00;102558.00;5071103;28;20052;-37
2021/12/14 01:16:01;;;;;;;22.60;10.13;;;;;;;9.07;100.00;102562.47;5069695;28;20041;-35
2021/12/14 01:18:46;;;;;;;23.42;11.02;;;;;;;9.07;100.00;102556.91;5068271;28;20048;-41
2021/12/14 01:21:27;;;;;;;18.48;9.45;;;;;;;9.09;100.00;102548.31;5069764;28;20454;-38
2021/12/14 01:24:03;;;;;;;21.63;8.73;;;;;;;9.08;100.00;102558.59;5070841;28;20456;-38
2021/12/14 01:26:37;;;;;;;19.80;8.70;;;;;;;9.07;100.00;102553.28;5053997;28;20056;-34
2021/12/14 01:29:09;;;;;;;19.27;7.70;;;;;;;9.09;100.00;102548.31;5071017;28;20052;-33
2021/12/14 01:31:40;;;;;;;;;;;;;;;9.02;100.00;102564.31;5054756;28;20576;-36
2021/12/14 01:34:13;;;;;;;11.40;5.20;;;;;;;9.03;100.00;102558.50;5069301;28;19956;-35
2021/12/14 01:36:46;;;;;;;13.02;4.90;;;;;;;9.05;100.00;102559.09;5070719;28;20281;-36
2021/12/14 01:39:45;;;;;;;12.07;5.00;;;;;;;9.11;100.00;102560.06;5069206;28;20067;-37
2021/12/14 01:42:18;;;;;;;13.05;4.63;;;;;;;9.11;100.00;102569.25;5065676;28;20045;-32
2021/12/14 01:44:50;;;;;;;15.25;5.25;;;;;;;9.15;100.00;102564.03;5069171;28;20049;-37
2021/12/14 01:47:26;;;;;;;13.77;4.82;;;;;;;9.16;100.00;102566.59;5068919;28;20127;-39
2021/12/14 01:50:17;;;;;;;13.48;5.13;;;;;;;9.17;100.00;102561.84;5069064;28;20048;-41
2021/12/14 01:53:05;;;;;;;12.75;5.22;;;;;;;9.18;100.00;102553.25;5070296;28;20061;-32
2021/12/14 01:55:36;;;;;;;14.07;5.38;;;;;;;9.18;100.00;102563.56;5069024;28;20485;-32
2021/12/14 01:58:09;;;;;;;13.43;5.07;;;;;;;9.17;100.00;102561.84;5070557;28;20151;-36
2021/12/14 02:00:44;;;;;;;18.38;6.43;;;;;;;9.17;100.00;102568.28;5068633;28;20044;-40
2021/12/14 02:03:15;;;;;;;16.75;6.43;;;;;;;9.19;100.00;102577.19;5069266;28;20144;-38
2021/12/14 02:05:48;;;;;;;19.83;7.60;;;;;;;9.16;100.00;102574.94;5068867;28;20037;-39
2021/12/14 02:08:21;;;;;;;22.17;7.63;;;;;;;9.17;100.00;102559.91;5070113;28;20170;-37
2021/12/14 02:10:52;;;;;;;19.70;7.57;;;;;;;9.15;100.00;102555.69;5071132;28;20398;-35
2021/12/14 02:13:26;;;;;;;17.48;6.32;;;;;;;9.13;100.00;102566.22;5074242;28;20047;-38
2021/12/14 02:15:55;;;;;;;16.33;5.88;;;;;;;9.12;100.00;102567.31;5072152;28;20049;-32
2021/12/14 02:18:29;;;;;;;13.60;5.95;;;;;;;9.11;100.00;102557.28;5072889;28;20096;-33
2021/12/14 02:21:01;;;;;;;16.30;5.22;;;;;;;9.11;100.00;102552.53;5074311;28;20055;-29
2021/12/14 02:23:31;;;;;;;14.33;5.40;;;;;;;9.09;100.00;102535.25;5072899;28;20143;-35
2021/12/14 02:26:02;;;;;;;11.10;5.40;;;;;;;9.09;100.00;102534.41;5073996;28;20856;-35
2021/12/14 02:28:30;;;;;;;15.35;5.60;;;;;;;9.05;100.00;102531.25;5056648;28;20056;-29
2021/12/14 02:31:00;;;;;;;15.30;6.32;;;;;;;9.03;100.00;102521.44;5072711;28;20132;-29
2021/12/14 02:33:31;;;;;;;15.20;5.70;;;;;;;9.05;100.00;102524.84;5073965;28;20055;-36
2021/12/14 02:36:07;;;;;;;16.85;6.90;;;;;;;9.04;100.00;102537.91;5069302;28;20068;-37
2021/12/14 02:38:40;;;;;;;16.00;6.15;;;;;;;9.02;100.00;102534.53;5074188;28;20041;-31
2021/12/14 02:41:09;;;;;;;13.05;5.90;;;;;;;9.03;100.00;102543.72;5068947;28;20045;-34
2021/12/14 02:43:50;;;;;;;12.73;5.65;;;;;;;9.01;100.00;102545.91;5072149;28;20215;-35
2021/12/14 02:46:24;;;;;;;11.65;5.35;;;;;;;9.02;100.00;102542.88;5069454;28;20059;-35
2021/12/14 02:48:55;;;;;;;12.75;5.65;;;;;;;9.03;100.00;102550.16;5073719;28;20102;-36
2021/12/14 02:51:27;;;;;;;17.00;6.03;;;;;;;9.05;100.00;102545.19;5071074;28;20399;-30
2021/12/14 02:54:00;;;;;;;15.90;5.53;;;;;;;9.05;100.00;102550.75;5072671;28;20409;-31
2021/12/14 02:56:32;;;;;;;16.17;6.45;;;;;;;9.07;100.00;102544.94;5071904;28;20401;-34
2021/12/14 02:59:04;;;;;;;13.50;5.38;;;;;;;9.06;100.00;102538.50;5072442;28;20464;-31
2021/12/14 03:01:33;;;;;;;15.05;5.25;;;;;;;9.09;100.00;102537.19;5073160;28;20043;-33
2021/12/14 03:04:03;;;;;;;14.77;5.28;;;;;;;9.10;100.00;102556.44;5071545;28;20044;-33
2021/12/14 03:06:44;;;;;;;14.05;5.03;;;;;;;9.10;100.00;102548.06;5071631;28;20044;-37
2021/12/14 03:09:31;;;;;;;12.25;4.68;;;;;;;9.12;100.00;102545.88;5072223;28;20470;-34
2021/12/14 03:12:00;;;;;;;16.75;5.88;;;;;;;9.16;100.00;102554.59;5071556;28;20040;-34
2021/12/14 03:14:28;;;;;;;12.73;5.18;;;;;;;9.16;100.00;102546.25;5073311;28;20490;-33
2021/12/14 03:16:56;;;;;;;12.15;4.88;;;;;;;9.18;100.00;102541.28;5073259;28;20043;-34
2021/12/14 03:19:24;;;;;;;13.05;5.43;;;;;;;9.17;100.00;102540.44;5071345;28;20048;-32
2021/12/14 03:21:53;;;;;;;17.92;5.25;;;;;;;9.18;100.00;102542.13;5070552;28;20063;-39
2021/12/14 03:24:21;;;;;;;14.48;5.38;;;;;;;9.18;100.00;102536.53;5072481;28;20382;-34
2021/12/14 03:26:53;;;;;;;17.77;5.13;;;;;;;9.17;100.00;102539.56;5071194;28;20489;-31
2021/12/14 03:29:25;;;;;;;14.57;5.10;;;;;;;9.19;100.00;102537.41;5073361;28;20075;-35
2021/12/14 03:31:57;;;;;;;13.30;4.10;;;;;;;9.19;100.00;102527.06;5070950;28;20106;-34
2021/12/14 03:34:34;;;;;;;14.20;4.38;;;;;;;9.22;100.00;102528.50;5071778;28;20083;-34
2021/12/14 03:37:08;;;;;;;16.92;4.82;;;;;;;9.23;100.00;102533.00;5071406;28;20060;-32
2021/12/14 03:39:38;;;;;;;17.35;4.72;;;;;;;9.22;100.00;102526.56;5061979;28;20127;-34
2021/12/14 03:42:09;;;;;;;;;;;;;;;9.17;100.00;102532.06;5071689;28;20072;-35
2021/12/14 03:44:40;;;;;;;13.80;4.18;;;;;;;9.15;100.00;102534.25;5072774;28;19994;-28
2021/12/14 03:47:14;;;;;;;14.32;4.10;;;;;;;9.17;100.00;102540.44;5070520;28;20048;-33
2021/12/14 03:49:47;;;;;;;15.57;4.45;;;;;;;9.16;100.00;102541.50;5071002;28;20062;-34
2021/12/14 03:52:21;;;;;;;12.85;4.05;;;;;;;9.20;100.00;102531.53;5070990;28;20055;-35
2021/12/14 03:54:51;;;;;;;14.77;4.45;;;;;;;9.22;100.00;102525.72;5071376;28;20102;-31
2021/12/14 03:57:20;;;;;;;13.13;3.83;;;;;;;9.23;100.00;102530.19;5070874;28;20052;-37
2021/12/14 03:59:49;;;;;;;13.70;3.88;;;;;;;9.26;100.00;102526.91;5066844;28;20489;-34
2021/12/14 04:02:18;;;;;;;9.57;3.70;;;;;;;9.25;100.00;102519.66;5070775;28;20127;-36
2021/12/14 04:04:53;;;;;;;18.73;4.50;;;;;;;9.26;100.00;102518.56;5071053;28;20048;-37
2021/12/14 04:07:23;;;;;;;18.60;4.63;;;;;;;9.25;100.00;102526.06;5070189;28;20132;-35
2021/12/14 04:10:05;;;;;;;13.45;3.92;;;;;;;9.25;100.00;102528.88;5070371;28;20548;-36
2021/12/14 04:12:34;;;;;;;20.45;4.65;;;;;;;9.25;100.00;102528.00;5070505;28;20094;-35
2021/12/14 04:15:04;;;;;;;9.00;3.90;;;;;;;9.23;100.00;102527.41;5070125;28;20048;-34
2021/12/14 04:17:32;;;;;;;14.70;4.20;;;;;;;9.22;100.00;102525.72;5070753;28;20049;-34
2021/12/14 04:20:00;;;;;;;15.98;4.13;;;;;;;9.24;100.00;102524.38;5071856;28;20045;-37
2021/12/14 04:22:33;;;;;;;12.90;4.13;;;;;;;9.25;100.00;102533.59;5071291;28;20048;-33
2021/12/14 04:25:06;;;;;;;14.38;4.32;;;;;;;9.23;100.00;102536.63;5070335;28;20049;-37
2021/12/14 04:27:34;;;;;;;;;;;;;;;9.22;100.00;102542.44;5070845;28;20053;-40
2021/12/14 04:30:07;;;;;;;15.73;5.13;;;;;;;9.19;100.00;102537.41;5070291;28;19969;-34
2021/12/14 04:32:35;;;;;;;18.55;6.60;;;;;;;9.19;100.00;102532.63;5070418;28;20704;-39
2021/12/14 04:35:05;;;;;;;17.67;6.88;;;;;;;9.18;100.00;102542.13;5069320;28;20052;-38
2021/12/14 04:37:38;;;;;;;21.23;7.50;;;;;;;9.19;100.00;102541.00;5070161;28;20052;-35
2021/12/14 04:40:19;;;;;;;22.85;7.50;;;;;;;9.18;100.00;102541.28;5067171;28;20460;-35
2021/12/14 04:54:00;;;;;;;22.65;8.75;;;;;;;9.16;100.00;102543.47;5069540;28;20044;-37
2021/12/14 04:56:32;;;;;;;19.33;8.02;;;;;;;9.17;100.00;102540.44;5068109;28;20076;-38
2021/12/14 04:59:05;;;;;;;17.95;7.75;;;;;;;9.17;100.00;102543.22;5070044;28;20044;-33
2021/12/14 05:01:36;;;;;;;20.27;9.23;;;;;;;9.17;100.00;102543.22;5069704;28;20444;-34
2021/12/14 05:04:08;;;;;;;19.05;8.68;;;;;;;9.15;100.00;102542.59;5069335;28;20440;-34
2021/12/14 05:06:47;;;;;;;20.25;9.50;;;;;;;9.13;100.00;102541.16;5069702;28;20048;-36
2021/12/14 05:09:30;;;;;;;19.95;9.48;;;;;;;9.16;100.00;102538.72;5069674;28;20045;-35
2021/12/14 05:12:09;;;;;;;19.60;10.05;;;;;;;9.15;100.00;102536.19;5067178;28;20060;-34
2021/12/14 05:14:47;;;;;;;24.77;10.55;;;;;;;9.15;100.00;102541.75;5067985;28;20048;-29
2021/12/14 05:17:18;;;;;;;21.23;9.75;;;;;;;9.17;100.00;102542.38;5068247;28;20048;-33
2021/12/14 05:19:48;;;;;;;26.73;11.00;;;;;;;9.18;100.00;102539.34;5069172;28;20075;-41
2021/12/14 05:22:17;;;;;;;27.85;11.05;;;;;;;9.18;100.00;102519.00;5070039;28;20048;-31
2021/12/14 05:24:54;;;;;;;25.55;10.77;;;;;;;9.18;100.00;102525.41;5069058;28;20143;-38
2021/12/14 05:27:27;;;;;;;23.15;11.35;;;;;;;9.18;100.00;102530.13;5069318;28;20045;-32
2021/12/14 05:30:08;;;;;;;29.55;12.05;;;;;;;9.17;100.00;102529.28;5069846;28;20048;-39
2021/12/14 05:32:44;;;;;;;22.15;11.35;;;;;;;9.14;100.00;102534.50;5069102;28;20048;-32
2021/12/14 05:35:17;;;;;;;32.15;12.00;;;;;;;9.16;100.00;102535.09;5069505;28;20494;-40
2021/12/14 05:37:48;;;;;;;28.00;11.02;;;;;;;9.16;100.00;102543.47;5070525;28;20098;-37
2021/12/14 05:40:36;;;;;;;;;;;;;;;9.12;100.00;102536.69;5069095;28;20062;-37
2021/12/14 05:43:07;;;;;;;27.25;10.38;;;;;;;9.08;100.00;102543.84;5068680;28;20334;-32
2021/12/14 05:45:55;;;;;;;25.85;11.23;;;;;;;9.13;100.00;102549.53;5070607;28;20048;-34
2021/12/14 05:48:25;;;;;;;25.67;10.80;;;;;;;9.12;100.00;102553.41;5073112;28;20052;-36
2021/12/14 05:50:56;;;;;;;29.40;11.85;;;;;;;9.14;100.00;102562.34;5073215;28;20076;-37
2021/12/14 05:53:28;;;;;;;24.50;11.68;;;;;;;9.14;100.00;102562.34;5074166;28;20063;-40
2021/12/14 05:55:59;;;;;;;23.47;11.43;;;;;;;9.12;100.00;102565.38;5073402;28;20086;-40
2021/12/14 05:58:29;;;;;;;27.85;11.35;;;;;;;9.13;100.00;102558.72;5073216;28;20044;-38
2021/12/14 06:01:00;;;;;;;30.17;11.93;;;;;;;9.15;100.00;102562.09;5073740;28;20044;-40
2021/12/14 06:03:31;;;;;;;28.55;11.73;;;;;;;9.16;100.00;102566.59;5073249;28;20139;-32
2021/12/14 06:06:01;;;;;;;27.42;10.82;;;;;;;9.18;100.00;102555.19;5073167;28;20052;-37
2021/12/14 06:08:32;;;;;;;28.30;10.65;;;;;;;9.18;100.00;102558.81;5070045;28;20094;-40
2021/12/14 06:11:21;;;;;;;26.17;9.93;;;;;;;9.19;100.00;102557.69;5072853;28;20452;-34
2021/12/14 06:13:50;;;;;;;23.23;9.15;;;;;;;9.19;100.00;102560.50;5072418;28;20056;-36
2021/12/14 06:16:25;;;;;;;22.65;8.85;;;;;;;9.21;100.00;102563.88;5074527;28;20058;-36
2021/12/14 06:18:53;;;;;;;25.40;9.40;;;;;;;9.21;100.00;102569.44;5070198;28;20053;-36
2021/12/14 06:21:35;;;;;;;25.20;7.80;;;;;;;9.21;100.00;102566.66;5072308;28;20044;-33
2021/12/14 06:24:06;;;;;;;19.77;7.28;;;;;;;9.23;100.00;102567.25;5072309;28;20048;-35
2021/12/14 06:26:43;;;;;;;17.38;7.03;;;;;;;9.24;100.00;102563.38;5073012;28;20041;-36
2021/12/14 06:29:14;;;;;;;20.40;7.50;;;;;;;9.26;100.00;102569.56;5069174;28;20083;-39
2021/12/14 06:31:42;;;;;;;28.00;7.78;;;;;;;9.26;100.00;102569.56;5072575;28;20052;-39
2021/12/14 06:34:20;;;;;;;19.95;6.40;;;;;;;9.29;100.00;102571.00;5073382;28;20072;-37
2021/12/14 06:37:42;;;;;;;23.58;6.93;;;;;;;9.29;100.00;102565.44;5056227;28;20405;-35
2021/12/14 06:40:19;;;;;;;21.30;6.30;;;;;;;9.27;100.00;102571.25;5072591;28;20048;-36
2021/12/14 06:42:54;;;;;;;22.33;6.07;;;;;;;9.26;100.00;102572.34;5060921;28;20044;-38
2021/12/14 06:45:25;;;;;;;15.23;5.70;;;;;;;9.27;100.00;102571.25;5067694;28;20743;-43
2021/12/14 06:48:00;;;;;;;20.13;4.65;;;;;;;9.26;100.00;102565.91;5072031;28;20159;-35
2021/12/14 06:50:34;;;;;;;17.73;4.22;;;;;;;9.26;100.00;102572.34;5068390;28;20044;-36
2021/12/14 06:53:08;;;;;;;16.90;3.80;;;;;;;9.25;100.00;102575.38;5071546;28;20469;-37
2021/12/14 06:55:59;;;;;;;14.30;3.63;;;;;;;9.22;100.00;102581.44;5071446;28;20052;-36
2021/12/14 06:58:55;;;;;;;20.02;3.53;;;;;;;9.22;100.00;102579.50;5065837;28;20075;-35
2021/12/14 07:01:44;;;;;;;12.52;2.85;;;;;;;9.20;100.00;102573.31;5064692;28;20044;-34
2021/12/14 07:04:15;;;;;;;14.35;3.10;;;;;;;9.22;100.00;102581.44;5071366;28;20106;-33
2021/12/14 07:06:47;;;;;;;13.25;3.45;;;;;;;9.22;100.00;102587.00;5072213;28;20052;-37
2021/12/14 07:09:18;;;;;;;17.85;3.20;;;;;;;9.22;100.00;102585.06;5069546;28;20485;-36
2021/12/14 07:11:59;;;;;;;11.65;3.10;;;;;;;9.22;100.00;102587.00;5070788;28;20049;-36
2021/12/14 07:14:43;;;;;;;9.98;2.67;;;;;;;9.21;100.00;102590.88;5071806;28;20051;-35
2021/12/14 07:17:20;;;;;;;15.95;3.05;;;;;;;9.20;100.00;102592.81;5071605;28;20056;-30
2021/12/14 07:19:54;;;;;;;11.23;2.92;;;;;;;9.22;100.00;102592.56;5071534;28;20471;-34
2021/12/14 07:22:39;;;;;;;13.75;2.97;;;;;;;9.23;100.00;102591.47;5071918;28;20491;-34
2021/12/14 07:25:12;;;;;;;11.48;2.60;;;;;;;9.23;100.00;102597.06;5070717;28;20080;-34
2021/12/14 07:27:41;;;;;;;11.00;2.95;;;;;;;9.23;100.00;102600.69;5071368;28;20054;-36
2021/12/14 07:30:15;;;;;;;10.25;2.30;;;;;;;9.25;100.00;102595.72;5071067;28;20044;-30
2021/12/14 07:32:49;;;;;;;9.20;3.05;;;;;;;9.27;100.00;102595.47;5070889;28;20059;-33
2021/12/14 07:35:31;;;;;;;13.35;3.38;;;;;;;9.26;100.00;102604.91;5071200;28;20048;-34
2021/12/14 07:38:08;;;;;;;9.40;2.58;;;;;;;9.25;100.00;102604.06;5071296;28;20436;-33
2021/12/14 07:40:46;;;;;;;9.90;2.50;;;;;;;9.25;100.00;102600.44;5071015;28;20071;-35
2021/12/14 07:43:26;;;;;;;8.65;2.40;;;;;;;9.25;100.00;102611.59;5070167;28;20426;-37
2021/12/14 07:46:00;;;;;;;7.72;2.30;;;;;;;9.24;100.00;102619.09;5070936;28;20090;-32
2021/12/14 07:48:47;;;;;;;11.30;3.03;;;;;;;9.23;100.00;102622.97;5071543;28;20055;-38
2021/12/14 07:51:19;;;;;;;11.13;2.85;;;;;;;9.22;100.00;102624.06;5070149;28;20051;-37
2021/12/14 07:53:54;;;;;;;12.60;3.05;;;;;;;9.24;100.00;102629.38;5070878;28;20110;-38
2021/12/14 07:56:35;;;;;;;8.25;2.45;;;;;;;9.26;100.00;102639.19;5070603;28;21085;-34
2021/12/14 07:59:17;;;;;;;7.28;2.15;;;;;;;9.25;100.00;102640.28;5071217;28;20055;-40
2021/12/14 08:01:49;;;;;;;12.00;2.67;;;;;;;9.26;100.00;102647.56;5066942;28;20466;-39
2021/12/14 08:04:17;;;;;;;10.00;2.50;;;;;;;9.28;100.00;102645.38;5070588;28;20096;-33
2021/12/14 08:06:49;;;;;;;8.23;2.28;;;;;;;9.31;100.00;102650.44;5069249;28;20045;-34
2021/12/14 08:09:32;;;;;;;12.60;2.78;;;;;;;9.33;100.00;102647.41;5069546;28;20098;-37
2021/12/14 08:12:02;;;;;;;9.43;2.20;;;;;;;9.31;100.00;102650.44;5068653;28;20051;-35
2021/12/14 08:14:31;;;;;;;11.70;2.60;;;;;;;9.33;100.00;102653.00;5069057;28;20051;-35
2021/12/14 08:17:06;;;;;;;9.55;2.67;;;;;;;9.33;100.00;102648.25;5069735;28;20079;-39
2021/12/14 08:19:39;;;;;;;10.23;3.30;;;;;;;9.34;100.00;102649.13;5069708;28;20139;-34
2021/12/14 08:22:14;;;;;;;12.73;3.40;;;;;;;9.35;100.00;102650.81;5068866;28;20102;-36
2021/12/14 08:24:50;;;;;;;11.23;2.92;;;;;;;9.35;100.00;102650.81;5068995;28;20068;-39
2021/12/14 08:27:20;;;;;;;11.82;2.80;;;;;;;9.36;100.00;102646.94;5068287;28;20044;-33
2021/12/14 08:29:51;;;;;;;12.38;3.00;;;;;;;9.37;100.00;102650.56;5069846;28;20446;-32
2021/12/14 08:32:24;;;;;;;7.90;2.50;;;;;;;9.38;100.00;102643.91;5069807;28;20422;-34
2021/12/14 08:34:56;;;;;;;16.17;3.28;;;;;;;9.37;100.00;102656.13;5070148;28;20083;-35
2021/12/14 08:37:32;;;;;;;8.43;2.90;;;;;;;9.37;100.00;102656.13;5069879;28;20068;-35
2021/12/14 08:40:05;;;;;;;10.48;2.58;;;;;;;9.38;100.00;102653.09;5070237;28;20060;-39
2021/12/14 08:42:44;;;;;;;10.15;2.80;;;;;;;9.37;100.00;102651.41;5069180;28;20391;-35
2021/12/14 08:45:26;;;;;;;8.68;2.38;;;;;;;9.40;100.00;102661.19;5070957;28;20047;-37
2021/12/14 08:48:06;;;;;;;12.35;2.90;;;;;;;9.39;100.00;102653.94;5070208;28;20052;-29
2021/12/14 08:50:47;;;;;;;11.52;3.22;;;;;;;9.40;100.00;102652.81;5071226;28;20041;-36
2021/12/14 08:53:17;;;;;;;;;;;;;;;9.32;100.00;102648.50;5070896;28;20513;-30
2021/12/14 08:55:50;;;;;;;8.27;2.63;;;;;;;9.29;100.00;102654.56;5070266;28;19927;-28
2021/12/14 08:58:18;;;;;;;;;;;;;;;9.27;100.00;102652.03;5071113;28;20437;-34
2021/12/14 09:00:48;;;;;;;10.68;3.00;;;;;;;9.27;100.00;102657.59;5071058;28;19920;-32
2021/12/14 09:03:24;;;;;;;10.10;3.45;;;;;;;9.29;100.00;102651.78;5068674;28;20102;-33
2021/12/14 09:05:53;;;;;;;10.93;3.00;;;;;;;9.29;100.00;102644.28;5071007;28;20497;-35
2021/12/14 09:08:22;;;;;;;10.40;3.00;;;;;;;9.31;100.00;102639.31;5069153;28;20131;-38
2021/12/14 09:10:53;;;;;;;11.23;3.10;;;;;;;9.33;100.00;102641.84;5069932;28;20053;-35
2021/12/14 09:13:21;;;;;;;8.70;2.78;;;;;;;9.35;100.00;102642.44;5070663;28;20091;-38
2021/12/14 09:15:54;;;;;;;11.90;3.10;;;;;;;9.35;100.00;102641.59;5070927;28;20048;-35
2021/12/14 09:18:25;;;;;;;13.65;3.10;;;;;;;9.35;100.00;102650.81;5070465;28;20055;-34
2021/12/14 09:20:58;;;;;;;14.07;3.40;;;;;;;9.38;100.00;102646.69;5069969;28;20507;-38
2021/12/14 09:23:30;;;;;;;14.38;3.22;;;;;;;9.40;100.00;102652.81;5069842;28;20052;-38
2021/12/14 09:26:03;;;;;;;14.55;3.60;;;;;;;9.39;100.00;102651.16;5071175;28;20045;-41
2021/12/14 09:28:32;;;;;;;14.65;3.33;;;;;;;9.40;100.00;102655.63;5070431;28;20446;-39
2021/12/14 09:31:03;;;;;;;13.57;2.95;;;;;;;9.41;100.00;102654.53;5069754;28;20134;-34
2021/12/14 09:33:35;;;;;;;11.98;3.00;;;;;;;9.41;100.00;102662.88;5070182;28;20080;-34
2021/12/14 09:36:10;;;;;;;9.43;2.77;;;;;;;9.41;100.00;102658.16;5067422;28;20454;-35
2021/12/14 09:38:40;;;;;;;17.85;3.25;;;;;;;9.44;100.00;102663.22;5069493;28;20036;-37
2021/12/14 09:41:13;;;;;;;14.52;3.58;;;;;;;9.44;100.00;102665.19;5070588;28;20482;-33
2021/12/14 09:43:42;;;;;;;12.45;3.20;;;;;;;9.47;100.00;102678.63;5070271;28;20041;-39
2021/12/14 09:46:11;;;;;;;17.30;3.97;;;;;;;9.46;100.00;102669.41;5069778;28;20053;-39
2021/12/14 09:48:42;;;;;;;15.65;3.60;;;;;;;9.48;100.00;102670.00;5070459;28;20123;-32
2021/12/14 09:51:15;;;;;;;19.97;3.63;;;;;;;9.51;100.00;102675.09;5069955;28;20044;-36
2021/12/14 09:53:48;;;;;;;21.33;3.83;;;;;;;9.53;100.00;102683.22;5069767;28;20377;-33
2021/12/14 09:56:19;;;;;;;17.75;3.70;;;;;;;9.54;100.00;102684.91;5070160;28;20044;-36
2021/12/14 09:58:51;;;;;;;13.48;3.38;;;;;;;9.55;100.00;102681.88;5069587;28;20079;-39
2021/12/14 10:01:22;;;;;;;17.38;3.42;;;;;;;9.56;100.00;102677.16;5068600;28;20543;-39
2021/12/14 10:04:01;;;;;;;16.75;3.45;;;;;;;9.56;100.00;102677.16;5069894;28;20058;-40
2021/12/14 10:06:31;;;;;;;15.52;3.42;;;;;;;9.57;100.00;102679.69;5068654;28;20375;-35
2021/12/14 10:09:04;;;;;;;15.13;3.40;;;;;;;9.58;100.00;102678.59;5069596;28;20048;-40
2021/12/14 10:11:42;;;;;;;14.77;3.80;;;;;;;9.59;100.00;102680.25;5066194;28;20045;-32
2021/12/14 10:14:13;;;;;;;10.70;2.47;;;;;;;9.62;100.00;102681.72;5054414;28;20043;-30
2021/12/14 10:16:41;;;;;;;13.02;3.10;;;;;;;9.62;100.00;102676.97;5066090;28;20494;-38
2021/12/14 10:19:14;;;;;;;18.83;3.53;;;;;;;9.62;100.00;102679.75;5069890;28;20072;-35
2021/12/14 10:21:45;;;;;;;15.15;3.72;;;;;;;9.64;100.00;102680.38;5070016;28;20049;-35
2021/12/14 10:24:13;;;;;;;11.95;2.88;;;;;;;9.67;100.00;102684.59;5069961;28;20055;-36
2021/12/14 10:26:45;;;;;;;12.95;3.13;;;;;;;9.71;100.00;102683.03;5069455;28;20067;-32
2021/12/14 10:29:14;;;;;;;16.83;3.60;;;;;;;9.71;100.00;102688.59;5070065;28;20036;-37
2021/12/14 10:31:50;;;;;;;14.35;3.10;;;;;;;9.71;100.00;102687.75;5068031;28;20037;-34
2021/12/14 10:34:24;;;;;;;8.15;2.65;;;;;;;9.73;100.00;102691.97;5073222;28;20489;-32
2021/12/14 10:37:03;;;;;;;9.57;2.75;;;;;;;9.74;100.00;102687.25;5072986;28;20485;-37
2021/12/14 10:39:40;;;;;;;9.77;2.38;;;;;;;9.75;100.00;102684.22;5073325;28;20055;-34
2021/12/14 10:45:03;;;;;;;10.38;2.40;;;;;;;9.74;100.00;102682.53;5073475;28;20041;-36
2021/12/14 10:47:33;;;;;;;9.57;2.50;;;;;;;9.75;100.00;102675.84;5072719;28;20119;-35
2021/12/14 10:50:11;;;;;;;16.95;3.67;;;;;;;9.78;100.00;102672.56;5073222;28;20048;-38
2021/12/14 10:52:42;;;;;;;14.10;3.63;;;;;;;9.82;100.00;102682.09;5072856;28;20062;-42
2021/12/14 10:55:15;;;;;;;16.73;3.73;;;;;;;9.86;100.00;102672.16;5072410;28;20432;-39
2021/12/14 10:57:43;;;;;;;17.33;4.25;;;;;;;9.87;100.00;102676.63;5070436;28;20301;-36
2021/12/14 11:00:17;;;;;;;18.88;3.75;;;;;;;9.90;100.00;102672.50;5073170;28;20103;-39
2021/12/14 11:02:45;;;;;;;19.52;3.47;;;;;;;9.86;100.00;102672.16;5072206;28;20056;-36
2021/12/14 11:05:18;;;;;;;21.38;3.33;;;;;;;9.87;100.00;102668.25;5073098;28;20106;-35
2021/12/14 11:07:49;;;;;;;18.77;3.40;;;;;;;9.87;100.00;102667.41;5072003;28;20045;-34
2021/12/14 11:10:19;;;;;;;21.98;3.88;;;;;;;9.86;100.00;102672.16;5072640;28;20040;-32
2021/12/14 11:12:51;;;;;;;21.80;4.05;;;;;;;9.85;100.00;102662.09;5071222;28;20429;-34
2021/12/14 11:15:23;;;;;;;20.33;3.88;;;;;;;9.84;100.00;102665.97;5073063;28;20048;-33
2021/12/14 11:18:10;;;;;;;;;;;;;;;9.77;100.00;102662.50;5072482;28;20083;-32
2021/12/14 11:20:48;;;;;;;15.98;3.17;;;;;;;9.76;100.00;102671.13;5073262;28;19946;-34
2021/12/14 11:23:20;;;;;;;23.85;4.18;;;;;;;9.76;100.00;102660.81;5071779;28;20052;-35
2021/12/14 11:25:58;;;;;;;16.15;3.60;;;;;;;9.81;100.00;102662.84;5072941;28;20066;-33
2021/12/14 11:28:32;;;;;;;18.67;4.18;;;;;;;9.82;100.00;102662.59;5072290;28;20361;-35
2021/12/14 11:31:04;;;;;;;12.85;3.40;;;;;;;9.84;100.00;102657.59;5072098;28;20040;-35
2021/12/14 11:33:35;;;;;;;17.45;4.35;;;;;;;9.86;100.00;102662.94;5072317;28;20539;-41
2021/12/14 11:36:11;;;;;;;14.95;3.70;;;;;;;9.86;100.00;102663.78;5072386;28;20121;-33
2021/12/14 11:38:43;;;;;;;19.45;3.65;;;;;;;9.85;100.00;102664.88;5071280;28;20044;-37
2021/12/14 11:41:26;;;;;;;14.88;3.60;;;;;;;9.86;100.00;102663.78;5072784;28;20056;-43
2021/12/14 11:43:57;;;;;;;15.93;3.30;;;;;;;9.86;100.00;102663.78;5070630;28;20060;-35
2021/12/14 11:46:27;;;;;;;15.40;3.63;;;;;;;9.88;100.00;102658.81;5072532;28;20044;-33
2021/12/14 11:48:58;;;;;;;15.27;3.10;;;;;;;9.89;100.00;102663.28;5071813;28;20072;-35
2021/12/14 11:51:30;;;;;;;19.23;3.72;;;;;;;9.89;100.00;102665.22;5071276;28;20044;-30
2021/12/14 11:54:00;;;;;;;13.33;3.30;;;;;;;9.89;100.00;102663.28;5071810;28;20048;-37
2021/12/14 11:56:31;;;;;;;14.57;3.67;;;;;;;9.88;100.00;102656.03;5072457;28;20058;-30
2021/12/14 11:59:02;;;;;;;15.52;4.03;;;;;;;9.87;100.00;102657.13;5066018;28;20048;-36
2021/12/14 12:01:33;;;;;;;16.05;3.53;;;;;;;9.87;100.00;102648.75;5072014;28;20500;-38
2021/12/14 12:04:05;;;;;;;18.83;4.07;;;;;;;9.89;100.00;102654.91;5071765;28;20043;-38
2021/12/14 12:06:46;;;;;;;23.65;4.82;;;;;;;9.89;100.00;102657.72;5071693;28;20056;-36